createdAt,value
2022-07-25T00:03:44.324Z,8.45
2022-07-25T00:09:06.541Z,8.20
2022-07-25T00:14:28.295Z,8.48
2022-07-25T00:19:50.011Z,8.88
2022-07-25T00:25:11.886Z,8.02
2022-07-25T00:30:33.647Z,7.63
2022-07-25T00:35:55.349Z,8.32
2022-07-25T00:41:17.070Z,8.00
2022-07-25T00:46:39.325Z,8.57
2022-07-25T00:52:01.542Z,8.43
2022-07-25T00:57:23.610Z,8.05
2022-07-25T01:02:45.916Z,8.27
2022-07-25T01:08:09.038Z,8.18
2022-07-25T01:13:34.281Z,8.15
2022-07-25T01:18:55.994Z,8.13
2022-07-25T01:24:17.760Z,8.00
2022-07-25T01:29:39.511Z,8.60
2022-07-25T01:35:01.641Z,7.80
2022-07-25T01:40:23.553Z,8.50
2022-07-25T01:45:45.451Z,8.13
2022-07-25T01:51:08.150Z,8.25
2022-07-25T01:56:32.834Z,7.82
2022-07-25T02:01:55.151Z,8.68
2022-07-25T02:07:16.978Z,8.23
2022-07-25T02:12:38.783Z,8.38
2022-07-25T02:18:00.778Z,8.98
2022-07-25T02:23:22.572Z,8.70
2022-07-25T02:28:44.465Z,8.93
2022-07-25T02:34:06.438Z,8.43
2022-07-25T02:39:28.504Z,9.02
2022-07-25T02:44:50.246Z,9.43
2022-07-25T02:50:14.713Z,9.02
2022-07-25T02:55:36.798Z,8.60
2022-07-25T03:00:58.661Z,8.75
2022-07-25T03:06:20.455Z,8.77
2022-07-25T03:11:42.307Z,9.02
2022-07-25T03:17:04.217Z,8.50
2022-07-25T03:22:26.069Z,8.98
2022-07-25T03:27:47.804Z,8.25
2022-07-25T03:33:10.140Z,8.00
2022-07-25T03:38:31.972Z,8.13
2022-07-25T03:43:53.782Z,7.55
2022-07-25T03:49:15.979Z,7.35
2022-07-25T03:54:37.721Z,7.10
2022-07-25T03:59:59.541Z,7.75
2022-07-25T04:05:21.355Z,8.25
2022-07-25T04:10:43.112Z,8.00
2022-07-25T04:16:05.418Z,8.60
2022-07-25T04:21:27.182Z,7.40
2022-07-25T04:26:49.012Z,8.00
2022-07-25T04:32:11.258Z,7.80
2022-07-25T04:37:33.213Z,7.47
2022-07-25T04:42:55.068Z,8.25
2022-07-25T04:48:17.008Z,8.20
2022-07-25T04:53:38.986Z,8.18
2022-07-25T04:59:06.707Z,8.20
2022-07-25T05:04:28.747Z,7.88
2022-07-25T05:09:50.519Z,8.05
2022-07-25T05:15:12.644Z,8.80
2022-07-25T05:20:34.356Z,7.68
2022-07-25T05:25:56.120Z,8.07
2022-07-25T05:31:19.047Z,9.20
2022-07-25T05:36:45.472Z,8.43
2022-07-25T05:42:08.871Z,8.40
2022-07-25T05:47:30.750Z,8.43
2022-07-25T05:52:52.522Z,9.02
2022-07-25T05:58:14.470Z,10.00
2022-07-25T06:03:36.248Z,10.35
2022-07-25T06:08:58.464Z,10.10
2022-07-25T06:14:21.564Z,10.20
2022-07-25T06:19:44.675Z,9.07
2022-07-25T06:25:07.039Z,9.45
2022-07-25T06:30:28.908Z,9.05
2022-07-25T06:35:50.772Z,21.15
2022-07-25T06:41:16.019Z,27.70
2022-07-25T06:46:37.868Z,13.80
2022-07-25T06:51:59.782Z,12.95
2022-07-25T06:57:21.586Z,9.30
2022-07-25T07:03:01.566Z,9.32
2022-07-25T07:08:23.492Z,8.55
2022-07-25T07:13:45.433Z,8.32
2022-07-25T07:19:07.642Z,8.68
2022-07-25T07:24:29.694Z,8.10
2022-07-25T07:29:51.471Z,8.88
2022-07-25T07:35:16.407Z,7.53
2022-07-25T07:40:38.403Z,8.57
2022-07-25T07:46:01.076Z,8.35
2022-07-25T07:51:23.197Z,8.32
2022-07-25T07:56:45.737Z,8.02
2022-07-25T08:02:07.614Z,7.97
2022-07-25T08:07:29.473Z,8.23
2022-07-25T08:12:51.626Z,7.68
2022-07-25T08:18:17.693Z,7.75
2022-07-25T08:23:39.997Z,7.20
2022-07-25T08:29:18.223Z,7.57
2022-07-25T08:34:40.785Z,7.80
2022-07-25T08:40:03.527Z,7.88
2022-07-25T08:45:27.929Z,8.15
2022-07-25T08:50:51.250Z,11.88
2022-07-25T08:56:18.877Z,7.40
2022-07-25T09:01:42.665Z,7.70
2022-07-25T09:07:08.053Z,7.00
2022-07-25T09:12:30.125Z,7.00
2022-07-25T09:17:52.500Z,7.15
2022-07-25T09:23:38.520Z,7.20
2022-07-25T09:29:01.094Z,6.60
2022-07-25T09:34:50.145Z,6.60
2022-07-25T09:40:15.373Z,6.30
2022-07-25T09:45:37.114Z,6.85
2022-07-25T09:50:59.953Z,6.55
2022-07-25T09:56:21.755Z,6.50
2022-07-25T10:01:55.122Z,6.85
2022-07-25T10:07:20.479Z,7.80
2022-07-25T10:12:42.492Z,7.18
2022-07-25T10:18:06.766Z,7.20
2022-07-25T10:23:28.600Z,7.35
2022-07-25T10:28:51.631Z,6.80
2022-07-25T10:34:16.571Z,6.82
2022-07-25T10:39:40.647Z,7.18
2022-07-25T10:45:05.401Z,6.78
2022-07-25T10:50:53.664Z,7.28
2022-07-25T10:56:23.201Z,6.70
2022-07-25T11:01:50.784Z,6.60
2022-07-25T11:07:15.515Z,7.00
2022-07-25T11:12:37.405Z,6.30
2022-07-25T11:17:59.171Z,6.30
2022-07-25T11:23:23.820Z,5.82
2022-07-25T11:28:47.992Z,7.20
2022-07-25T11:34:09.927Z,5.60
2022-07-25T11:39:34.719Z,5.43
2022-07-25T11:44:56.475Z,5.60
2022-07-25T11:50:28.664Z,5.90
2022-07-25T11:55:50.414Z,4.93
2022-07-25T12:01:14.781Z,5.53
2022-07-25T12:06:36.513Z,5.38
2022-07-25T12:12:03.927Z,4.70
2022-07-25T12:17:25.984Z,5.25
2022-07-25T12:22:49.559Z,5.22
2022-07-25T12:28:12.152Z,5.35
2022-07-25T12:33:33.957Z,5.20
2022-07-25T12:38:55.787Z,4.78
2022-07-25T12:44:17.544Z,5.00
2022-07-25T12:49:39.361Z,4.60
2022-07-25T12:55:01.249Z,5.28
2022-07-25T13:00:23.945Z,5.18
2022-07-25T13:05:45.860Z,5.90
2022-07-25T13:11:07.670Z,5.70
2022-07-25T13:16:29.555Z,5.30
2022-07-25T13:21:51.459Z,5.30
2022-07-25T13:27:13.262Z,4.95
2022-07-25T13:32:35.164Z,4.75
2022-07-25T13:37:56.914Z,5.55
2022-07-25T13:43:21.472Z,5.05
2022-07-25T13:48:43.403Z,5.05
2022-07-25T13:54:05.341Z,5.00
2022-07-25T13:59:27.094Z,4.30
2022-07-25T14:04:48.851Z,4.68
2022-07-25T14:10:10.770Z,5.15
2022-07-25T14:15:32.742Z,5.32
2022-07-25T14:20:55.229Z,5.68
2022-07-25T14:26:17.235Z,5.85
2022-07-25T14:31:40.215Z,5.10
2022-07-25T14:37:02.663Z,5.57
2022-07-25T14:42:24.458Z,5.85
2022-07-25T14:47:46.377Z,6.25
2022-07-25T14:53:08.215Z,5.80
2022-07-25T14:58:30.152Z,5.63
2022-07-25T15:03:52.834Z,6.13
2022-07-25T15:09:15.057Z,5.57
2022-07-25T15:14:36.846Z,5.70
2022-07-25T15:19:58.834Z,5.82
2022-07-25T15:25:59.898Z,5.47
2022-07-25T15:31:02.708Z,6.15
2022-07-25T15:36:29.126Z,5.80
2022-07-25T15:41:51.508Z,5.45
2022-07-25T15:47:13.434Z,5.60
2022-07-25T15:52:35.498Z,5.60
2022-07-25T15:57:57.836Z,5.50
2022-07-25T16:03:20.969Z,5.57
2022-07-25T16:08:42.793Z,5.35
2022-07-25T16:14:05.391Z,5.70
2022-07-25T16:19:27.210Z,5.88
2022-07-25T16:24:49.223Z,6.45
2022-07-25T16:30:11.538Z,5.55
2022-07-25T16:35:33.384Z,5.40
2022-07-25T16:40:55.382Z,5.47
2022-07-25T16:46:17.256Z,5.43
2022-07-25T16:51:39.344Z,5.60
2022-07-25T16:57:01.181Z,5.03
2022-07-25T17:02:28.902Z,5.28
2022-07-25T17:07:58.687Z,5.32
2022-07-25T17:13:21.729Z,5.72
2022-07-25T17:18:43.639Z,4.60
2022-07-25T17:24:06.307Z,5.00
2022-07-25T17:29:28.150Z,4.40
2022-07-25T17:34:49.959Z,4.70
2022-07-25T17:40:12.141Z,4.65
2022-07-25T17:45:34.380Z,4.78
2022-07-25T17:50:56.168Z,4.35
2022-07-25T17:56:17.982Z,4.65
2022-07-25T18:01:40.020Z,4.95
2022-07-25T18:07:02.016Z,4.35
2022-07-25T18:12:27.503Z,4.70
2022-07-25T18:17:52.796Z,4.68
2022-07-25T18:23:14.662Z,4.68
2022-07-25T18:28:36.485Z,4.40
2022-07-25T18:33:58.384Z,9.10
2022-07-25T18:39:20.240Z,4.38
2022-07-25T18:44:42.053Z,4.65
2022-07-25T18:50:05.527Z,4.15
2022-07-25T18:55:27.415Z,3.67
2022-07-25T19:00:49.233Z,3.60
2022-07-25T19:06:11.451Z,3.22
2022-07-25T19:11:37.640Z,3.05
2022-07-25T19:17:04.585Z,3.00
2022-07-25T19:22:26.889Z,3.00
2022-07-25T19:27:48.724Z,3.00
2022-07-25T19:33:10.565Z,3.20
2022-07-25T19:38:32.988Z,2.97
2022-07-25T19:43:54.963Z,3.72
2022-07-25T19:49:17.227Z,2.85
2022-07-25T19:54:39.254Z,2.55
2022-07-25T20:00:01.357Z,2.50
2022-07-25T20:05:23.242Z,3.03
2022-07-25T20:10:45.048Z,2.90
2022-07-25T20:16:07.034Z,2.67
2022-07-25T20:21:29.469Z,2.55
2022-07-25T20:26:51.316Z,2.20
2022-07-25T20:32:13.147Z,2.55
2022-07-25T20:37:35.050Z,2.50
2022-07-25T20:42:57.916Z,3.30
2022-07-25T20:48:19.744Z,2.90
2022-07-25T20:53:41.951Z,1.90
2022-07-25T20:59:04.155Z,2.28
2022-07-25T21:04:26.147Z,2.20
2022-07-25T21:09:47.920Z,2.47
2022-07-25T21:15:10.162Z,1.83
2022-07-25T21:20:31.937Z,1.98
2022-07-25T21:25:53.669Z,2.40
2022-07-25T21:31:17.607Z,2.20
2022-07-25T21:36:39.794Z,2.35
2022-07-25T21:42:01.814Z,3.00
2022-07-25T21:47:24.630Z,2.20
2022-07-25T21:52:46.542Z,2.30
2022-07-25T21:58:08.304Z,2.13
2022-07-25T22:03:30.131Z,1.98
2022-07-25T22:08:51.935Z,2.03
2022-07-25T22:14:14.271Z,2.47
2022-07-25T22:19:36.069Z,1.88
2022-07-25T22:24:57.917Z,1.77
2022-07-25T22:30:19.802Z,2.15
2022-07-25T22:35:41.689Z,1.80
2022-07-25T22:41:03.517Z,2.00
2022-07-25T22:46:25.556Z,2.08
2022-07-25T22:51:47.416Z,1.58
2022-07-25T22:57:09.182Z,1.70
2022-07-25T23:02:31.019Z,1.80
2022-07-25T23:07:52.818Z,2.03
2022-07-25T23:13:14.585Z,1.95
2022-07-25T23:18:36.379Z,1.83
2022-07-25T23:23:59.907Z,2.08
2022-07-25T23:29:21.665Z,2.20
2022-07-25T23:34:44.162Z,1.90
2022-07-25T23:40:06.654Z,2.00
2022-07-25T23:45:28.700Z,2.08
2022-07-25T23:50:50.478Z,1.92
2022-07-25T23:56:13.476Z,1.80
